Time;durP1;ratioP1;P1;durP2;ratioP2;P2;SDS_P1;SDS_P2;PMS_P1;PMS_P2;Temp;Humidity;BMP_temperature;BMP_pressure;BME280_temperature;BME280_humidity;BME280_pressure;Samples;Min_cycle;Max_cycle;Signal;HPM_P1;HPM_P2
2024/02/20 00:02:03;;;;;;;13.67;10.33;;;;;;;;;;5107455;28;20196;-86
2024/02/20 00:04:29;;;;;;;12.67;9.43;;;;;;;;;;5107610;28;20199;-86
2024/02/20 00:06:57;;;;;;;13.23;10.73;;;;;;;;;;5071411;28;20205;-85
2024/02/20 00:09:23;;;;;;;14.33;10.53;;;;;;;;;;5070882;28;20193;-93
2024/02/20 00:11:52;;;;;;;14.80;10.10;;;;;;;;;;5091917;28;20189;-86
2024/02/20 00:14:17;;;;;;;14.30;10.97;;;;;;;;;;5090900;28;20208;-86
2024/02/20 00:16:45;;;;;;;17.03;11.53;;;;;;;;;;5090979;28;20219;-87
2024/02/20 00:19:12;;;;;;;18.53;14.23;;;;;;;;;;5100107;28;20226;-85
2024/02/20 00:21:40;;;;;;;14.80;11.50;;;;;;;;;;5108112;28;20200;-86
2024/02/20 00:24:08;;;;;;;17.83;13.53;;;;;;;;;;5115468;28;20252;-85
2024/02/20 00:26:35;;;;;;;28.67;18.33;;;;;;;;;;5115154;28;20195;-86
2024/02/20 00:29:03;;;;;;;22.83;16.03;;;;;;;;;;5100787;28;20622;-86
2024/02/20 00:31:32;;;;;;;18.07;14.20;;;;;;;;;;5078432;28;20659;-86
2024/02/20 00:33:59;;;;;;;18.10;13.40;;;;;;;;;;5095664;28;20273;-85
2024/02/20 00:36:26;;;;;;;14.73;12.57;;;;;;;;;;5094361;28;20223;-85
2024/02/20 00:38:52;;;;;;;13.13;10.87;;;;;;;;;;5080435;28;20208;-86
2024/02/20 00:41:19;;;;;;;13.20;11.70;;;;;;;;;;5074949;28;20197;-86
2024/02/20 00:43:46;;;;;;;14.30;12.03;;;;;;;;;;5074582;28;20282;-86
2024/02/20 00:46:20;;;;;;;17.03;11.43;;;;;;;;;;5079556;28;20283;-86
2024/02/20 00:48:47;;;;;;;15.20;11.10;;;;;;;;;;5095206;28;20207;-86
2024/02/20 00:51:16;;;;;;;12.77;9.97;;;;;;;;;;5095035;28;20245;-86
2024/02/20 00:53:43;;;;;;;14.47;10.60;;;;;;;;;;5095667;28;20201;-85
2024/02/20 00:56:11;;;;;;;13.10;10.10;;;;;;;;;;5095115;28;20226;-86
2024/02/20 00:58:38;;;;;;;15.13;10.00;;;;;;;;;;5095140;28;20196;-85
2024/02/20 01:01:09;;;;;;;13.47;10.10;;;;;;;;;;5111542;28;20229;-86
2024/02/20 01:03:38;;;;;;;11.83;9.87;;;;;;;;;;5111450;28;20261;-85
2024/02/20 01:06:07;;;;;;;10.23;8.37;;;;;;;;;;5110547;28;20198;-86
2024/02/20 01:08:34;;;;;;;11.57;9.27;;;;;;;;;;5114600;28;20688;-85
2024/02/20 01:11:00;;;;;;;13.60;9.90;;;;;;;;;;5087604;28;20618;-86
2024/02/20 01:13:27;;;;;;;12.57;10.00;;;;;;;;;;5087719;28;20726;-85
2024/02/20 01:15:54;;;;;;;14.17;10.50;;;;;;;;;;5114790;28;20231;-86
2024/02/20 01:18:21;;;;;;;12.57;9.60;;;;;;;;;;5115017;28;20203;-85
2024/02/20 01:20:49;;;;;;;14.90;10.47;;;;;;;;;;5114945;28;20252;-85
2024/02/20 01:23:16;;;;;;;13.63;9.83;;;;;;;;;;5103030;28;20208;-86
2024/02/20 01:25:43;;;;;;;13.30;9.63;;;;;;;;;;5094455;28;20204;-86
2024/02/20 01:28:10;;;;;;;11.90;9.80;;;;;;;;;;5103558;28;20567;-86
2024/02/20 01:30:38;;;;;;;16.23;9.07;;;;;;;;;;5093948;28;20201;-83
2024/02/20 01:33:07;;;;;;;11.23;8.83;;;;;;;;;;5093510;28;20223;-84
2024/02/20 01:35:34;;;;;;;10.30;8.10;;;;;;;;;;5092611;28;20200;-83
2024/02/20 01:38:03;;;;;;;9.97;8.10;;;;;;;;;;5108709;28;20654;-81
2024/02/20 01:40:29;;;;;;;11.70;9.43;;;;;;;;;;5102209;28;20200;-82
2024/02/20 01:42:56;;;;;;;14.50;11.47;;;;;;;;;;5093999;28;20196;-81
2024/02/20 01:45:24;;;;;;;12.97;10.53;;;;;;;;;;5092941;28;20230;-81
2024/02/20 01:47:51;;;;;;;15.70;10.30;;;;;;;;;;5093450;28;20673;-82
2024/02/20 01:50:17;;;;;;;11.67;9.77;;;;;;;;;;5092433;28;20670;-82
2024/02/20 01:52:44;;;;;;;9.67;8.67;;;;;;;;;;5094094;28;20694;-82
2024/02/20 01:55:12;;;;;;;18.43;11.20;;;;;;;;;;5073012;28;20622;-82
2024/02/20 01:57:39;;;;;;;13.77;10.10;;;;;;;;;;5077222;28;20585;-82
2024/02/20 02:00:07;;;;;;;15.50;10.73;;;;;;;;;;5092429;28;20279;-82
2024/02/20 02:02:34;;;;;;;14.23;9.70;;;;;;;;;;5093089;28;20250;-81
2024/02/20 02:05:01;;;;;;;12.47;9.07;;;;;;;;;;5093173;28;20200;-82
2024/02/20 02:07:28;;;;;;;14.57;10.90;;;;;;;;;;5093004;28;20196;-82
2024/02/20 02:09:55;;;;;;;22.17;12.20;;;;;;;;;;5079724;28;20196;-81
2024/02/20 02:12:23;;;;;;;11.37;8.63;;;;;;;;;;5093889;28;20196;-81
2024/02/20 02:14:50;;;;;;;12.27;9.00;;;;;;;;;;5092099;28;20592;-81
2024/02/20 02:17:17;;;;;;;10.73;7.93;;;;;;;;;;5092475;28;20285;-82
2024/02/20 02:19:43;;;;;;;9.37;7.33;;;;;;;;;;5092558;28;20265;-81
2024/02/20 02:22:10;;;;;;;11.20;8.27;;;;;;;;;;5091756;28;20204;-81
2024/02/20 02:24:40;;;;;;;11.57;8.23;;;;;;;;;;5100765;28;20207;-82
2024/02/20 02:27:11;;;;;;;9.50;8.40;;;;;;;;;;5095125;28;20224;-83
2024/02/20 02:29:38;;;;;;;10.87;8.27;;;;;;;;;;5072922;28;20258;-81
2024/02/20 02:32:05;;;;;;;12.43;9.93;;;;;;;;;;5086895;28;20189;-82
2024/02/20 02:34:33;;;;;;;11.60;7.87;;;;;;;;;;5093191;28;20636;-82
2024/02/20 02:37:00;;;;;;;12.67;7.60;;;;;;;;;;5091394;28;20258;-83
2024/02/20 02:39:27;;;;;;;11.10;8.83;;;;;;;;;;5092627;28;20200;-82
2024/02/20 02:41:54;;;;;;;12.93;10.63;;;;;;;;;;5091336;28;20196;-82
2024/02/20 02:44:22;;;;;;;16.00;13.10;;;;;;;;;;5092423;28;20256;-83
2024/02/20 02:46:48;;;;;;;14.27;12.77;;;;;;;;;;5091244;28;20204;-83
2024/02/20 02:49:15;;;;;;;18.73;14.77;;;;;;;;;;5093098;28;20261;-83
2024/02/20 02:51:42;;;;;;;13.53;10.90;;;;;;;;;;5092556;28;20200;-83
2024/02/20 02:54:09;;;;;;;12.00;10.70;;;;;;;;;;5107397;28;20685;-84
2024/02/20 02:56:36;;;;;;;16.97;12.73;;;;;;;;;;5112020;28;20223;-83
2024/02/20 02:59:04;;;;;;;19.07;13.53;;;;;;;;;;5096505;28;20250;-82
2024/02/20 03:01:32;;;;;;;13.37;11.67;;;;;;;;;;5099769;28;20684;-82
2024/02/20 03:04:00;;;;;;;10.70;9.60;;;;;;;;;;5103196;28;20208;-83
2024/02/20 03:06:26;;;;;;;13.43;9.07;;;;;;;;;;5092464;28;20291;-83
2024/02/20 03:08:53;;;;;;;11.20;7.73;;;;;;;;;;5094737;28;20249;-82
2024/02/20 03:11:20;;;;;;;7.87;6.60;;;;;;;;;;5112566;28;20203;-83
2024/02/20 03:13:47;;;;;;;9.17;7.40;;;;;;;;;;5101411;28;20574;-83
2024/02/20 03:16:15;;;;;;;11.57;9.33;;;;;;;;;;5085782;28;20200;-83
2024/02/20 03:18:44;;;;;;;12.80;9.07;;;;;;;;;;5088789;28;20279;-82
2024/02/20 03:21:10;;;;;;;10.43;9.30;;;;;;;;;;5091785;28;20204;-82
2024/02/20 03:23:41;;;;;;;25.40;18.50;;;;;;;;;;5090922;28;20570;-82
2024/02/20 03:26:10;;;;;;;34.23;30.60;;;;;;;;;;5091213;28;20196;-83
2024/02/20 03:28:37;;;;;;;19.83;17.77;;;;;;;;;;5092186;28;20203;-83
2024/02/20 03:31:07;;;;;;;13.80;11.33;;;;;;;;;;5097677;28;20654;-83
2024/02/20 03:33:34;;;;;;;11.20;9.07;;;;;;;;;;5111406;28;20223;-83
2024/02/20 03:36:04;;;;;;;13.67;9.13;;;;;;;;;;5073465;28;20200;-82
2024/02/20 03:38:31;;;;;;;10.63;8.67;;;;;;;;;;5105150;28;20219;-82
2024/02/20 03:40:58;;;;;;;11.40;8.17;;;;;;;;;;5096173;28;20196;-82
2024/02/20 03:43:24;;;;;;;12.27;8.33;;;;;;;;;;5092008;28;20203;-83
2024/02/20 03:45:51;;;;;;;10.80;8.47;;;;;;;;;;5090542;28;20234;-83
2024/02/20 03:48:18;;;;;;;11.93;9.67;;;;;;;;;;5090837;28;20195;-82
2024/02/20 03:50:45;;;;;;;11.77;9.47;;;;;;;;;;5081477;28;20192;-82
2024/02/20 03:53:14;;;;;;;12.47;8.90;;;;;;;;;;5071161;28;20197;-82
2024/02/20 03:55:40;;;;;;;11.67;8.57;;;;;;;;;;5070078;28;20262;-82
2024/02/20 03:58:12;;;;;;;9.83;8.73;;;;;;;;;;5083629;28;20223;-82
2024/02/20 04:00:40;;;;;;;10.63;8.40;;;;;;;;;;5090085;28;20198;-82
2024/02/20 04:03:09;;;;;;;25.67;20.23;;;;;;;;;;5096291;28;20306;-82
2024/02/20 04:05:37;;;;;;;18.13;14.40;;;;;;;;;;5094009;28;20614;-81
2024/02/20 04:08:04;;;;;;;19.90;15.53;;;;;;;;;;5095359;28;20283;-82
2024/02/20 04:10:32;;;;;;;19.53;14.70;;;;;;;;;;5094684;28;20215;-83
2024/02/20 04:12:59;;;;;;;13.43;11.10;;;;;;;;;;5095273;28;20212;-82
2024/02/20 04:15:25;;;;;;;20.90;11.07;;;;;;;;;;5094522;28;20200;-82
2024/02/20 04:17:52;;;;;;;11.90;9.73;;;;;;;;;;5094933;28;20234;-82
2024/02/20 04:20:19;;;;;;;12.87;11.53;;;;;;;;;;5095498;28;20196;-82
2024/02/20 04:22:45;;;;;;;12.27;10.33;;;;;;;;;;5089755;28;20193;-82
2024/02/20 04:25:11;;;;;;;11.67;10.53;;;;;;;;;;5083421;28;20571;-82
2024/02/20 04:27:40;;;;;;;22.97;17.83;;;;;;;;;;5094644;28;20196;-82
2024/02/20 04:30:11;;;;;;;22.87;19.10;;;;;;;;;;5079240;28;20201;-82
2024/02/20 04:32:38;;;;;;;15.07;12.97;;;;;;;;;;5093136;28;20662;-82
2024/02/20 04:35:06;;;;;;;24.80;21.33;;;;;;;;;;5094548;28;20250;-80
2024/02/20 04:37:32;;;;;;;20.13;17.93;;;;;;;;;;5095190;28;20216;-80
2024/02/20 04:39:59;;;;;;;14.70;12.00;;;;;;;;;;5086930;28;20201;-81
2024/02/20 04:42:26;;;;;;;18.27;13.37;;;;;;;;;;5074805;28;20201;-81
2024/02/20 04:44:54;;;;;;;16.80;12.50;;;;;;;;;;5074412;28;20736;-80
2024/02/20 04:47:21;;;;;;;21.07;15.37;;;;;;;;;;5085163;28;20666;-81
2024/02/20 04:49:48;;;;;;;33.00;24.20;;;;;;;;;;5087237;28;20197;-81
2024/02/20 04:52:15;;;;;;;27.37;24.40;;;;;;;;;;5092419;28;20257;-82
2024/02/20 04:54:42;;;;;;;20.63;16.27;;;;;;;;;;5095336;28;20201;-82
2024/02/20 04:57:09;;;;;;;18.27;14.90;;;;;;;;;;5083480;28;20768;-81
2024/02/20 04:59:36;;;;;;;36.87;27.33;;;;;;;;;;5093280;28;20204;-82
2024/02/20 05:02:04;;;;;;;14.00;12.60;;;;;;;;;;5087893;28;20207;-81
2024/02/20 05:04:31;;;;;;;16.20;12.13;;;;;;;;;;5094637;28;20541;-82
2024/02/20 05:06:58;;;;;;;12.80;11.13;;;;;;;;;;5093583;28;20234;-82
2024/02/20 05:09:25;;;;;;;13.00;10.63;;;;;;;;;;5094870;28;20196;-82
2024/02/20 05:11:52;;;;;;;17.40;13.43;;;;;;;;;;5084296;28;20656;-82
2024/02/20 05:14:18;;;;;;;18.63;12.20;;;;;;;;;;5075985;28;20201;-81
2024/02/20 05:16:45;;;;;;;20.83;15.20;;;;;;;;;;5094694;28;20224;-82
2024/02/20 05:19:13;;;;;;;21.40;15.50;;;;;;;;;;5092776;28;20196;-81
2024/02/20 05:21:41;;;;;;;15.77;14.07;;;;;;;;;;5089824;28;20189;-82
2024/02/20 05:24:08;;;;;;;11.57;10.40;;;;;;;;;;5090384;28;20298;-83
2024/02/20 05:26:35;;;;;;;13.23;9.70;;;;;;;;;;5103824;28;20199;-82
2024/02/20 05:29:02;;;;;;;13.13;11.90;;;;;;;;;;5114553;28;20621;-80
2024/02/20 05:31:30;;;;;;;13.37;12.07;;;;;;;;;;5114405;28;20206;-84
2024/02/20 05:33:57;;;;;;;17.33;13.87;;;;;;;;;;5114887;28;20284;-85
2024/02/20 05:36:29;;;;;;;16.73;14.37;;;;;;;;;;5114225;28;20196;-84
2024/02/20 05:38:59;;;;;;;17.40;15.70;;;;;;;;;;5114250;28;20219;-84
2024/02/20 05:41:26;;;;;;;12.77;11.60;;;;;;;;;;5114477;28;20260;-84
2024/02/20 05:43:57;;;;;;;14.27;12.87;;;;;;;;;;5111544;28;20275;-84
2024/02/20 05:46:25;;;;;;;11.20;10.20;;;;;;;;;;5092278;28;20197;-87
2024/02/20 05:48:52;;;;;;;11.83;10.63;;;;;;;;;;5105620;28;20244;-84
2024/02/20 05:51:19;;;;;;;36.67;28.47;;;;;;;;;;5095431;28;20203;-85
2024/02/20 05:53:47;;;;;;;22.00;19.63;;;;;;;;;;5098986;28;20197;-84
2024/02/20 05:56:13;;;;;;;14.20;10.50;;;;;;;;;;5092575;28;20204;-85
2024/02/20 05:58:41;;;;;;;17.03;11.70;;;;;;;;;;5092116;28;20228;-85
2024/02/20 06:01:11;;;;;;;15.23;11.03;;;;;;;;;;5079114;28;20231;-85
2024/02/20 06:03:40;;;;;;;9.80;7.43;;;;;;;;;;5093198;28;20200;-83
2024/02/20 06:06:07;;;;;;;10.37;8.10;;;;;;;;;;5097384;28;20276;-84
2024/02/20 06:08:34;;;;;;;10.63;9.63;;;;;;;;;;5087148;28;20232;-85
2024/02/20 06:11:03;;;;;;;11.67;10.33;;;;;;;;;;5100419;28;20195;-84
2024/02/20 06:13:30;;;;;;;9.83;8.07;;;;;;;;;;5096891;28;20204;-86
2024/02/20 06:15:56;;;;;;;11.20;8.67;;;;;;;;;;5112622;28;20662;-85
2024/02/20 06:18:23;;;;;;;12.10;8.37;;;;;;;;;;5099536;28;20607;-84
2024/02/20 06:20:50;;;;;;;16.90;12.70;;;;;;;;;;5091439;28;20211;-84
2024/02/20 06:23:17;;;;;;;39.00;25.47;;;;;;;;;;5092223;28;20564;-85
2024/02/20 06:25:44;;;;;;;19.80;17.10;;;;;;;;;;5091874;28;20201;-84
2024/02/20 06:28:14;;;;;;;89.43;53.97;;;;;;;;;;5092023;28;20200;-84
2024/02/20 06:30:41;;;;;;;32.10;20.87;;;;;;;;;;5101911;28;20199;-84
2024/02/20 06:33:10;;;;;;;28.70;16.90;;;;;;;;;;5098307;28;20215;-87
2024/02/20 06:35:41;;;;;;;68.17;36.97;;;;;;;;;;5101467;28;20204;-84
2024/02/20 06:38:09;;;;;;;48.43;28.10;;;;;;;;;;5091859;28;20637;-84
2024/02/20 06:40:35;;;;;;;31.97;19.40;;;;;;;;;;5091585;28;20192;-84
2024/02/20 06:43:02;;;;;;;39.93;20.53;;;;;;;;;;5091526;28;20215;-85
2024/02/20 06:45:31;;;;;;;25.03;16.53;;;;;;;;;;5104609;28;20206;-84
2024/02/20 06:47:57;;;;;;;29.50;18.87;;;;;;;;;;5088159;28;20215;-85
2024/02/20 06:50:24;;;;;;;11.03;7.83;;;;;;;;;;5083976;28;20196;-84
2024/02/20 06:52:51;;;;;;;10.83;8.90;;;;;;;;;;5085755;28;20288;-84
2024/02/20 06:55:18;;;;;;;13.57;10.97;;;;;;;;;;5095106;28;20618;-85
2024/02/20 06:57:45;;;;;;;33.97;23.80;;;;;;;;;;5081596;28;20223;-85
2024/02/20 07:00:14;;;;;;;16.23;12.53;;;;;;;;;;5091603;28;20257;-85
2024/02/20 07:02:43;;;;;;;8.87;7.97;;;;;;;;;;5098610;28;20234;-85
2024/02/20 07:05:11;;;;;;;14.57;11.80;;;;;;;;;;5109942;28;20611;-85
2024/02/20 07:07:42;;;;;;;20.80;15.97;;;;;;;;;;5075818;28;20196;-83
2024/02/20 07:10:09;;;;;;;28.00;23.17;;;;;;;;;;5091075;28;20192;-85
2024/02/20 07:12:36;;;;;;;23.73;19.97;;;;;;;;;;5091461;28;20189;-84
2024/02/20 07:15:05;;;;;;;17.53;14.37;;;;;;;;;;5093655;28;20201;-83
2024/02/20 07:17:33;;;;;;;17.60;15.63;;;;;;;;;;5111647;28;20200;-84
2024/02/20 07:20:02;;;;;;;15.30;12.97;;;;;;;;;;5095607;28;20236;-84
2024/02/20 07:22:32;;;;;;;12.43;7.87;;;;;;;;;;5091578;28;20216;-83
2024/02/20 07:24:58;;;;;;;11.87;10.23;;;;;;;;;;5090888;28;20201;-84
2024/02/20 07:27:26;;;;;;;15.17;11.30;;;;;;;;;;5091815;28;20196;-84
2024/02/20 07:29:54;;;;;;;13.50;11.77;;;;;;;;;;5090898;28;20197;-84
2024/02/20 07:32:21;;;;;;;16.70;13.97;;;;;;;;;;5101103;28;20214;-84
2024/02/20 07:34:50;;;;;;;16.47;14.13;;;;;;;;;;5081071;28;20227;-84
2024/02/20 07:37:18;;;;;;;16.07;12.43;;;;;;;;;;5091179;28;20290;-84
2024/02/20 07:39:45;;;;;;;29.53;20.00;;;;;;;;;;5090807;28;20212;-85
2024/02/20 07:42:13;;;;;;;86.53;51.57;;;;;;;;;;5079501;28;20197;-85
2024/02/20 07:44:40;;;;;;;74.20;40.53;;;;;;;;;;5103047;28;20608;-83
2024/02/20 07:47:07;;;;;;;39.97;24.37;;;;;;;;;;5090809;28;20595;-84
2024/02/20 07:49:34;;;;;;;17.47;13.57;;;;;;;;;;5090813;28;20215;-85
2024/02/20 07:52:01;;;;;;;11.23;10.00;;;;;;;;;;5090383;28;20199;-83
2024/02/20 07:54:31;;;;;;;48.63;35.57;;;;;;;;;;5090660;28;20207;-83
2024/02/20 07:56:58;;;;;;;25.00;19.60;;;;;;;;;;5090998;28;20196;-85
2024/02/20 07:59:25;;;;;;;14.90;13.43;;;;;;;;;;5094965;28;20219;-86
2024/02/20 08:01:52;;;;;;;43.60;27.73;;;;;;;;;;5096898;28;20546;-85
2024/02/20 08:04:20;;;;;;;27.23;22.10;;;;;;;;;;5090695;28;20297;-84
2024/02/20 08:06:47;;;;;;;17.03;15.00;;;;;;;;;;5104704;28;20199;-84
2024/02/20 08:09:13;;;;;;;12.33;9.83;;;;;;;;;;5092908;28;20271;-84
2024/02/20 08:11:42;;;;;;;10.47;9.40;;;;;;;;;;5091269;28;20196;-85
2024/02/20 08:14:09;;;;;;;15.80;12.83;;;;;;;;;;5103045;28;20287;-85
2024/02/20 08:16:36;;;;;;;16.00;11.33;;;;;;;;;;5105288;28;20249;-85
2024/02/20 08:19:03;;;;;;;12.70;10.27;;;;;;;;;;5090931;28;20670;-85
2024/02/20 08:21:30;;;;;;;11.90;10.70;;;;;;;;;;5091325;28;20246;-85
2024/02/20 08:23:58;;;;;;;16.17;14.20;;;;;;;;;;5103690;28;20536;-84
2024/02/20 08:26:25;;;;;;;14.43;12.97;;;;;;;;;;5090585;28;20255;-84
2024/02/20 08:28:53;;;;;;;16.17;13.00;;;;;;;;;;5090402;28;20199;-85
2024/02/20 08:31:20;;;;;;;13.60;12.17;;;;;;;;;;5090495;28;20235;-84
2024/02/20 08:33:47;;;;;;;16.50;14.80;;;;;;;;;;5090700;28;20277;-84
2024/02/20 08:36:14;;;;;;;29.23;21.83;;;;;;;;;;5103925;28;20199;-84
2024/02/20 08:38:40;;;;;;;21.13;17.23;;;;;;;;;;5090463;28;20659;-84
2024/02/20 08:41:07;;;;;;;21.80;17.23;;;;;;;;;;5090182;28;20262;-85
2024/02/20 08:43:34;;;;;;;25.67;19.97;;;;;;;;;;5093605;28;20199;-84
2024/02/20 08:46:03;;;;;;;44.87;31.97;;;;;;;;;;5081862;28;20196;-84
2024/02/20 08:48:29;;;;;;;41.80;32.07;;;;;;;;;;5093880;28;20234;-85
2024/02/20 08:50:56;;;;;;;27.47;23.60;;;;;;;;;;5094012;28;20200;-84
2024/02/20 08:53:23;;;;;;;25.80;21.90;;;;;;;;;;5093861;28;20682;-83
2024/02/20 08:55:50;;;;;;;17.73;15.70;;;;;;;;;;5094865;28;20207;-85
2024/02/20 08:58:17;;;;;;;21.87;18.70;;;;;;;;;;5093708;28;20221;-85
2024/02/20 09:00:45;;;;;;;17.87;12.97;;;;;;;;;;5091318;28;20573;-85
2024/02/20 09:03:13;;;;;;;16.87;12.13;;;;;;;;;;5094001;28;20198;-85
2024/02/20 09:05:39;;;;;;;13.93;12.53;;;;;;;;;;5080482;28;20200;-84
2024/02/20 09:08:08;;;;;;;16.97;13.70;;;;;;;;;;5093989;28;20200;-84
2024/02/20 09:10:35;;;;;;;15.70;12.40;;;;;;;;;;5093588;28;20204;-85
2024/02/20 09:13:02;;;;;;;18.23;15.47;;;;;;;;;;5103541;28;20199;-84
2024/02/20 09:15:29;;;;;;;23.30;15.90;;;;;;;;;;5094141;28;20196;-84
2024/02/20 09:17:56;;;;;;;15.27;12.17;;;;;;;;;;5092992;28;20196;-84
2024/02/20 09:20:24;;;;;;;13.07;11.10;;;;;;;;;;5092946;28;20685;-83
2024/02/20 09:22:51;;;;;;;13.27;11.90;;;;;;;;;;5093383;28;20207;-84
2024/02/20 09:25:19;;;;;;;20.40;12.97;;;;;;;;;;5093331;28;20204;-84
2024/02/20 09:27:47;;;;;;;15.13;13.63;;;;;;;;;;5093638;28;20203;-84
2024/02/20 09:30:14;;;;;;;19.70;12.60;;;;;;;;;;5092965;28;20210;-85
2024/02/20 09:32:43;;;;;;;15.80;13.73;;;;;;;;;;5093145;28;20211;-83
2024/02/20 09:35:11;;;;;;;27.37;18.33;;;;;;;;;;5093232;28;20196;-84
2024/02/20 09:37:41;;;;;;;15.33;13.13;;;;;;;;;;5105741;28;20253;-83
2024/02/20 09:40:09;;;;;;;16.53;13.23;;;;;;;;;;5101229;28;20720;-85
2024/02/20 09:42:40;;;;;;;18.37;13.73;;;;;;;;;;5083047;28;20205;-84
2024/02/20 09:45:10;;;;;;;15.70;13.33;;;;;;;;;;5081983;28;20200;-87
2024/02/20 09:47:37;;;;;;;13.23;11.57;;;;;;;;;;5092938;28;20192;-84
2024/02/20 09:50:06;;;;;;;15.70;11.97;;;;;;;;;;5092894;28;20200;-83
2024/02/20 09:52:33;;;;;;;17.77;13.23;;;;;;;;;;5092673;28;20685;-84
2024/02/20 09:55:03;;;;;;;16.17;11.57;;;;;;;;;;5103406;28;20666;-84
2024/02/20 09:57:31;;;;;;;18.83;14.63;;;;;;;;;;5095370;28;20307;-84
2024/02/20 09:59:58;;;;;;;15.47;12.13;;;;;;;;;;5092720;28;20235;-84
2024/02/20 10:02:28;;;;;;;17.13;11.90;;;;;;;;;;5102208;28;20247;-84
2024/02/20 10:04:55;;;;;;;21.30;14.17;;;;;;;;;;5082391;28;20586;-84
2024/02/20 10:07:21;;;;;;;12.47;11.17;;;;;;;;;;5092324;28;20211;-84
2024/02/20 10:09:48;;;;;;;12.77;11.40;;;;;;;;;;5092753;28;20192;-85
2024/02/20 10:12:21;;;;;;;14.63;12.23;;;;;;;;;;5106436;28;20203;-84
2024/02/20 10:14:48;;;;;;;18.77;13.33;;;;;;;;;;5092878;28;20638;-84
2024/02/20 10:17:15;;;;;;;16.30;12.10;;;;;;;;;;5092594;28;20577;-83
2024/02/20 10:19:43;;;;;;;15.50;11.53;;;;;;;;;;5092569;28;20220;-84
2024/02/20 10:22:13;;;;;;;16.07;13.40;;;;;;;;;;5092482;28;20220;-84
2024/02/20 10:24:39;;;;;;;15.93;11.77;;;;;;;;;;5091949;28;20196;-84
2024/02/20 10:27:10;;;;;;;15.97;11.90;;;;;;;;;;5100310;28;20191;-84
2024/02/20 10:29:39;;;;;;;16.00;12.10;;;;;;;;;;5100064;28;20197;-84
2024/02/20 10:32:07;;;;;;;18.83;11.77;;;;;;;;;;5104398;28;20192;-84
2024/02/20 10:34:33;;;;;;;19.03;12.67;;;;;;;;;;5092005;28;20798;-84
2024/02/20 10:37:05;;;;;;;21.17;11.83;;;;;;;;;;5092507;28;20261;-84
2024/02/20 10:39:32;;;;;;;16.57;12.43;;;;;;;;;;5091577;28;20255;-84
2024/02/20 10:42:01;;;;;;;18.87;11.80;;;;;;;;;;5091980;28;20200;-84
2024/02/20 10:44:29;;;;;;;14.90;11.80;;;;;;;;;;5100895;28;20217;-84
2024/02/20 10:46:58;;;;;;;23.33;12.17;;;;;;;;;;5090184;28;20199;-84
2024/02/20 10:49:26;;;;;;;14.33;11.73;;;;;;;;;;5106747;28;20228;-84
2024/02/20 10:51:55;;;;;;;15.97;12.43;;;;;;;;;;5092057;28;20626;-85
2024/02/20 10:54:22;;;;;;;15.80;11.37;;;;;;;;;;5091460;28;20208;-84
2024/02/20 10:56:49;;;;;;;18.20;12.97;;;;;;;;;;5082361;28;20660;-85
2024/02/20 10:59:18;;;;;;;17.17;11.23;;;;;;;;;;5089722;28;20331;-83
2024/02/20 11:01:45;;;;;;;17.70;12.80;;;;;;;;;;5104982;28;20188;-84
2024/02/20 11:04:13;;;;;;;17.47;12.63;;;;;;;;;;5106584;28;20204;-84
2024/02/20 11:06:41;;;;;;;17.80;13.50;;;;;;;;;;5103939;28;20680;-84
2024/02/20 11:09:11;;;;;;;17.53;12.70;;;;;;;;;;5109041;28;20206;-85
2024/02/20 11:11:38;;;;;;;23.40;12.57;;;;;;;;;;5084327;28;20200;-84
2024/02/20 11:14:06;;;;;;;14.97;12.13;;;;;;;;;;5103945;28;20671;-84
2024/02/20 11:16:35;;;;;;;19.10;14.07;;;;;;;;;;5106191;28;20206;-84
2024/02/20 11:19:03;;;;;;;21.80;14.23;;;;;;;;;;5092854;28;20701;-84
2024/02/20 11:21:32;;;;;;;18.63;12.97;;;;;;;;;;5091457;28;20311;-84
2024/02/20 11:24:10;;;;;;;16.80;12.87;;;;;;;;;;5090993;28;20654;-84
2024/02/20 11:26:41;;;;;;;20.87;13.53;;;;;;;;;;5090564;28;20546;-83
2024/02/20 11:29:10;;;;;;;20.40;14.50;;;;;;;;;;5091533;28;20207;-84
2024/02/20 11:31:37;;;;;;;15.53;11.77;;;;;;;;;;5093841;28;20237;-84
2024/02/20 11:34:16;;;;;;;17.37;11.97;;;;;;;;;;5111854;28;20259;-84
2024/02/20 11:36:45;;;;;;;19.27;12.77;;;;;;;;;;5077789;28;20200;-85
2024/02/20 11:39:15;;;;;;;17.70;12.50;;;;;;;;;;5090751;28;20231;-88
2024/02/20 11:41:43;;;;;;;14.63;11.23;;;;;;;;;;5091233;28;20196;-83
2024/02/20 11:44:10;;;;;;;18.77;11.90;;;;;;;;;;5091011;28;20249;-84
2024/02/20 11:46:38;;;;;;;18.37;12.23;;;;;;;;;;5090801;28;20196;-85
2024/02/20 11:49:05;;;;;;;15.93;12.33;;;;;;;;;;5090815;28;20203;-84
2024/02/20 11:51:32;;;;;;;15.97;11.23;;;;;;;;;;5077081;28;20677;-84
2024/02/20 11:54:07;;;;;;;16.50;12.10;;;;;;;;;;5090641;28;20260;-84
2024/02/20 11:56:34;;;;;;;16.10;12.07;;;;;;;;;;5091358;28;20245;-85
2024/02/20 11:59:01;;;;;;;16.77;11.90;;;;;;;;;;5090753;28;20208;-85
2024/02/20 12:01:29;;;;;;;15.40;11.20;;;;;;;;;;5090920;28;20203;-85
2024/02/20 12:03:56;;;;;;;21.80;13.23;;;;;;;;;;5090187;28;20220;-85
2024/02/20 12:06:28;;;;;;;22.63;14.00;;;;;;;;;;5090612;28;20582;-84
2024/02/20 12:08:55;;;;;;;18.10;12.90;;;;;;;;;;5090967;28;20228;-84
2024/02/20 12:11:26;;;;;;;17.37;12.23;;;;;;;;;;5090901;28;20196;-84
2024/02/20 12:13:54;;;;;;;19.17;12.73;;;;;;;;;;5084646;28;20663;-84
2024/02/20 12:16:22;;;;;;;17.80;13.07;;;;;;;;;;5082195;28;20196;-84
2024/02/20 12:18:49;;;;;;;17.37;13.10;;;;;;;;;;5111570;28;20741;-87
2024/02/20 12:21:16;;;;;;;17.40;12.30;;;;;;;;;;5101034;28;20289;-85
2024/02/20 12:23:52;;;;;;;16.77;12.57;;;;;;;;;;5101131;28;20188;-84
2024/02/20 12:26:19;;;;;;;16.00;12.33;;;;;;;;;;5097523;28;20238;-85
2024/02/20 12:28:48;;;;;;;16.80;12.83;;;;;;;;;;5094596;28;20235;-85
2024/02/20 12:31:20;;;;;;;18.07;12.00;;;;;;;;;;5094084;28;20196;-85
2024/02/20 12:33:46;;;;;;;18.90;12.07;;;;;;;;;;5104121;28;20223;-85
2024/02/20 12:36:13;;;;;;;16.60;12.30;;;;;;;;;;5084715;28;20548;-84
2024/02/20 12:38:40;;;;;;;18.10;12.43;;;;;;;;;;5094262;28;20196;-87
2024/02/20 12:41:08;;;;;;;18.37;12.80;;;;;;;;;;5082838;28;20259;-84
2024/02/20 12:43:35;;;;;;;16.13;12.50;;;;;;;;;;5103729;28;20192;-85
2024/02/20 12:46:03;;;;;;;21.20;11.90;;;;;;;;;;5093297;28;20196;-84
2024/02/20 12:48:31;;;;;;;18.13;11.80;;;;;;;;;;5094036;28;20692;-85
2024/02/20 12:50:59;;;;;;;20.67;13.73;;;;;;;;;;5093791;28;20192;-85
2024/02/20 12:53:26;;;;;;;18.40;12.50;;;;;;;;;;5094416;28;20598;-84
2024/02/20 12:55:53;;;;;;;18.27;12.90;;;;;;;;;;5107607;28;20224;-85
2024/02/20 12:58:20;;;;;;;17.50;11.77;;;;;;;;;;5093747;28;20203;-85
2024/02/20 13:00:46;;;;;;;15.30;10.93;;;;;;;;;;5098121;28;20238;-84
2024/02/20 13:03:15;;;;;;;19.50;12.70;;;;;;;;;;5105246;28;20204;-84
2024/02/20 13:05:44;;;;;;;17.53;11.93;;;;;;;;;;5112574;28;20219;-85
2024/02/20 13:08:11;;;;;;;16.93;11.87;;;;;;;;;;5104181;28;20204;-84
2024/02/20 13:10:38;;;;;;;13.47;10.53;;;;;;;;;;5093251;28;20707;-84
2024/02/20 13:13:06;;;;;;;14.30;11.33;;;;;;;;;;5093534;28;20229;-85
2024/02/20 13:15:33;;;;;;;18.03;12.13;;;;;;;;;;5093163;28;20236;-83
2024/02/20 13:17:59;;;;;;;15.70;12.07;;;;;;;;;;5093569;28;20207;-85
2024/02/20 13:20:30;;;;;;;19.50;13.20;;;;;;;;;;5092980;28;20224;-84
2024/02/20 13:22:56;;;;;;;18.07;12.70;;;;;;;;;;5093650;28;20192;-85
2024/02/20 13:25:23;;;;;;;19.93;12.53;;;;;;;;;;5107876;28;20208;-85
2024/02/20 13:27:50;;;;;;;17.77;11.30;;;;;;;;;;5107413;28;20550;-85
2024/02/20 13:30:17;;;;;;;15.73;11.90;;;;;;;;;;5106532;28;20315;-85
2024/02/20 13:32:44;;;;;;;16.23;10.90;;;;;;;;;;5107189;28;20204;-84
2024/02/20 13:35:14;;;;;;;14.80;10.77;;;;;;;;;;5089488;28;20196;-84
2024/02/20 13:37:43;;;;;;;15.17;10.43;;;;;;;;;;5099642;28;20700;-85
2024/02/20 13:40:11;;;;;;;13.97;10.37;;;;;;;;;;5092925;28;20220;-85
2024/02/20 13:42:38;;;;;;;11.90;9.63;;;;;;;;;;5092817;28;20279;-85
2024/02/20 13:45:05;;;;;;;11.93;8.47;;;;;;;;;;5093273;28;20203;-85
2024/02/20 13:47:35;;;;;;;13.70;9.17;;;;;;;;;;5108676;28;20200;-84
2024/02/20 13:50:02;;;;;;;10.30;8.63;;;;;;;;;;5103128;28;20307;-85
2024/02/20 13:52:29;;;;;;;15.97;10.23;;;;;;;;;;5093020;28;20204;-84
2024/02/20 13:54:57;;;;;;;14.87;9.50;;;;;;;;;;5092568;28;20200;-85
2024/02/20 13:57:23;;;;;;;15.07;10.57;;;;;;;;;;5096725;28;20188;-85
2024/02/20 13:59:50;;;;;;;10.33;8.57;;;;;;;;;;5091758;28;20223;-84
2024/02/20 14:02:18;;;;;;;12.43;10.10;;;;;;;;;;5090025;28;20568;-84
2024/02/20 14:04:46;;;;;;;12.97;10.87;;;;;;;;;;5092521;28;20583;-84
2024/02/20 14:07:13;;;;;;;14.63;10.37;;;;;;;;;;5110690;28;20223;-84
2024/02/20 14:09:39;;;;;;;18.73;13.03;;;;;;;;;;5111495;28;20196;-83
2024/02/20 14:12:08;;;;;;;15.93;11.43;;;;;;;;;;5099218;28;20540;-84
2024/02/20 14:14:35;;;;;;;12.93;10.27;;;;;;;;;;5088370;28;20201;-85
2024/02/20 14:17:02;;;;;;;16.50;11.43;;;;;;;;;;5091164;28;20200;-85
2024/02/20 14:19:29;;;;;;;12.83;10.00;;;;;;;;;;5092609;28;20208;-84
2024/02/20 14:21:56;;;;;;;18.17;13.47;;;;;;;;;;5091934;28;20306;-85
2024/02/20 14:24:22;;;;;;;18.50;14.83;;;;;;;;;;5092722;28;20192;-85